Airfield :
LOGIN :

Register | Disclaimer

   EN    FR    IT 

 










Legend :    VFR   Marginal VFR   IFR   Intensive IFR   Very Intensive IFR
Visi :
Ceiling :
>= 8 km
>= 3000ft
5 to 8 km
1000 to 3000 ft
1500m to 5 km
500 to 1000 ft
800 to 1500m
200 to 500 ft
< 800m
< 200 ft
Symbols :   Thunderstorms  Fog  Heavy snow  Heavy precipitations  Wind > 20 kt
SIGMETs :     Misc.  Thunderstorms  Icing  Turbulence  Mountain Waves  Volcanic Ashes






- Airport Elevation : 1367 ft
- IATA code : FDH


EDNY - Friedrichshafen

EXPIRED METARs :
  • 011620Z 15004KT 080V180 9999 FEW026 18/12 Q1022
  • 012150Z AUTO 03004KT 9999 NCD 13/12 Q1023
  • 012120Z AUTO 04003KT 9999 NCD 12/12 Q1023
  • 012050Z AUTO 07002KT 9999 NCD 13/12 Q1023
  • 012020Z AUTO VRB02KT 9999 NCD 13/12 Q1023
  • 010550Z 26009KT 210V280 9000 -RA BKN008 OVC012 13/12 Q1019
  • 011950Z AUTO 00000KT 9999 FEW079/// 13/13 Q1023

TAF TAF EDNY
Valid from the 01 at 18:00 until the 02 at 18:00 UTC


011700Z 0118/0218 04003KT 9999 FEW025
BECMG 0207/0209 04008KT
BECMG 0216/0218 VRB03KT



MET'MAP, your aeronautical weather chart ! - Copyright ORBIFLY December 2007 - Disclaimer

ORBIFLY MET'MAP TEAM :

Programming & Development : Alexandra Zaïnal
Original concept : Baudouin d'Aumeries
Technical & hardware support : Manuel Goepfert
Assistance : Marc-Olivier Méhu




SOURCES & CREDITS :

   NOAA